Airfield :
LOGIN :

Register | Disclaimer

   EN    FR    IT 

 










Legend :    VFR   Marginal VFR   IFR   Intensive IFR   Very Intensive IFR
Visi :
Ceiling :
>= 8 km
>= 3000ft
5 to 8 km
1000 to 3000 ft
1500m to 5 km
500 to 1000 ft
800 to 1500m
200 to 500 ft
< 800m
< 200 ft
Symbols :   Thunderstorms  Fog  Heavy snow  Heavy precipitations  Wind > 20 kt
SIGMETs :     Misc.  Thunderstorms  Icing  Turbulence  Mountain Waves  Volcanic Ashes






- Airport Elevation : 308 ft
- IATA code : POZ


EPPO - Poznan-Lawica

CURRENT METAR :
  • 210430Z 28001KT 8000 2500W MIFG NSC 03/03 Q1011

EXPIRED METARs :
  • 210400Z 24002KT 9000 MIFG NSC 02/02 Q1011
  • 210330Z 27003KT 4000 BCFG NSC 03/03 Q1011
  • 210300Z 27003KT 9999 MIFG NSC 04/03 Q1012
  • 210230Z 26003KT CAVOK 05/04 Q1012
  • 210200Z 27004KT CAVOK 05/04 Q1012

TAF AMD TAF EPPO
Valid from the 21 at 03:00 until the 22 at 00:00 UTC


210337Z 2103/2124 VRB02KT 4000 BR NSC
TEMPO 2103/2106 0600 FG
BECMG 2106/2108 27010KT CAVOK
TEMPO 2111/2118 BKN030TCU
TEMPO 2118/2124 4000 SHRA BKN025CB



MET'MAP, your aeronautical weather chart ! - Copyright ORBIFLY December 2007 - Disclaimer

ORBIFLY MET'MAP TEAM :

Programming & Development : Alexandra Zaïnal
Concept & original design : Baudouin d'Aumeries
Assistance for programming : Marc-Olivier Méhu
Technical & hardware support : Manuel Goepfert

Contact : metmap@orbifly.com




SOURCES & CREDITS :

   NOAA